sensor_id;sensor_type;location;lat;lon;timestamp;P1;durP1;ratioP1;P2;durP2;ratioP2
44694;SDS011;32845;59.422;17.930;2022-09-09T00:02:40;0.50;;;0.50;;
44694;SDS011;32845;59.422;17.930;2022-09-09T00:12:18;0.40;;;0.40;;
44694;SDS011;32845;59.422;17.930;2022-09-09T00:17:26;0.68;;;0.45;;
44694;SDS011;32845;59.422;17.930;2022-09-09T00:26:51;0.98;;;0.73;;
44694;SDS011;32845;59.422;17.930;2022-09-09T00:31:31;3.08;;;0.65;;
44694;SDS011;32845;59.422;17.930;2022-09-09T00:36:02;0.60;;;0.50;;
44694;SDS011;32845;59.422;17.930;2022-09-09T00:40:34;0.95;;;0.45;;
44694;SDS011;32845;59.422;17.930;2022-09-09T01:04:51;3.25;;;0.55;;
44694;SDS011;32845;59.422;17.930;2022-09-09T01:19:07;1.08;;;0.68;;
44694;SDS011;32845;59.422;17.930;2022-09-09T01:28:51;1.60;;;0.47;;
44694;SDS011;32845;59.422;17.930;2022-09-09T01:33:22;0.63;;;0.32;;
44694;SDS011;32845;59.422;17.930;2022-09-09T01:37:53;0.35;;;0.35;;
44694;SDS011;32845;59.422;17.930;2022-09-09T01:42:24;0.40;;;0.40;;
44694;SDS011;32845;59.422;17.930;2022-09-09T01:46:55;1.33;;;0.40;;
44694;SDS011;32845;59.422;17.930;2022-09-09T01:51:30;0.52;;;0.30;;
44694;SDS011;32845;59.422;17.930;2022-09-09T01:56:04;0.32;;;0.32;;
44694;SDS011;32845;59.422;17.930;2022-09-09T02:01:02;1.70;;;0.45;;
44694;SDS011;32845;59.422;17.930;2022-09-09T02:10:14;0.28;;;0.28;;
44694;SDS011;32845;59.422;17.930;2022-09-09T02:14:51;1.55;;;0.47;;
44694;SDS011;32845;59.422;17.930;2022-09-09T02:19:35;1.13;;;0.30;;
44694;SDS011;32845;59.422;17.930;2022-09-09T02:24:09;0.98;;;0.30;;
44694;SDS011;32845;59.422;17.930;2022-09-09T02:28:44;3.90;;;0.73;;
44694;SDS011;32845;59.422;17.930;2022-09-09T02:33:15;1.15;;;0.40;;
44694;SDS011;32845;59.422;17.930;2022-09-09T02:37:46;0.32;;;0.25;;
44694;SDS011;32845;59.422;17.930;2022-09-09T02:42:22;0.20;;;0.20;;
44694;SDS011;32845;59.422;17.930;2022-09-09T02:51:49;0.98;;;0.50;;
44694;SDS011;32845;59.422;17.930;2022-09-09T02:56:27;2.00;;;0.40;;
44694;SDS011;32845;59.422;17.930;2022-09-09T03:01:02;0.43;;;0.43;;
44694;SDS011;32845;59.422;17.930;2022-09-09T03:05:33;1.63;;;0.50;;
44694;SDS011;32845;59.422;17.930;2022-09-09T03:10:05;0.90;;;0.35;;
44694;SDS011;32845;59.422;17.930;2022-09-09T03:14:41;2.45;;;0.30;;
44694;SDS011;32845;59.422;17.930;2022-09-09T03:19:14;0.40;;;0.30;;
44694;SDS011;32845;59.422;17.930;2022-09-09T03:23:49;0.32;;;0.25;;
44694;SDS011;32845;59.422;17.930;2022-09-09T03:28:20;0.20;;;0.20;;
44694;SDS011;32845;59.422;17.930;2022-09-09T03:32:51;1.67;;;0.70;;
44694;SDS011;32845;59.422;17.930;2022-09-09T03:37:22;1.23;;;0.38;;
44694;SDS011;32845;59.422;17.930;2022-09-09T03:41:53;1.50;;;0.90;;
44694;SDS011;32845;59.422;17.930;2022-09-09T03:46:24;0.40;;;0.30;;
44694;SDS011;32845;59.422;17.930;2022-09-09T03:50:56;0.20;;;0.20;;
44694;SDS011;32845;59.422;17.930;2022-09-09T03:55:30;1.38;;;0.50;;
44694;SDS011;32845;59.422;17.930;2022-09-09T04:00:04;0.73;;;0.45;;
44694;SDS011;32845;59.422;17.930;2022-09-09T04:04:37;2.75;;;0.60;;
44694;SDS011;32845;59.422;17.930;2022-09-09T04:09:07;1.23;;;0.80;;
44694;SDS011;32845;59.422;17.930;2022-09-09T04:13:38;1.83;;;0.43;;
44694;SDS011;32845;59.422;17.930;2022-09-09T04:18:09;2.03;;;0.60;;
44694;SDS011;32845;59.422;17.930;2022-09-09T04:22:45;3.10;;;0.70;;
44694;SDS011;32845;59.422;17.930;2022-09-09T04:27:15;0.50;;;0.38;;
44694;SDS011;32845;59.422;17.930;2022-09-09T04:31:46;0.75;;;0.50;;
44694;SDS011;32845;59.422;17.930;2022-09-09T04:36:17;2.92;;;0.55;;
44694;SDS011;32845;59.422;17.930;2022-09-09T04:40:56;5.22;;;0.75;;
44694;SDS011;32845;59.422;17.930;2022-09-09T04:45:27;1.13;;;0.70;;
44694;SDS011;32845;59.422;17.930;2022-09-09T04:49:57;2.30;;;0.68;;
44694;SDS011;32845;59.422;17.930;2022-09-09T04:54:43;2.00;;;0.68;;
44694;SDS011;32845;59.422;17.930;2022-09-09T04:59:15;0.77;;;0.40;;
44694;SDS011;32845;59.422;17.930;2022-09-09T05:03:46;1.48;;;0.40;;
44694;SDS011;32845;59.422;17.930;2022-09-09T05:08:17;1.90;;;0.50;;
44694;SDS011;32845;59.422;17.930;2022-09-09T05:12:52;2.63;;;0.63;;
44694;SDS011;32845;59.422;17.930;2022-09-09T05:17:23;2.20;;;0.52;;
44694;SDS011;32845;59.422;17.930;2022-09-09T05:21:54;5.40;;;0.80;;
44694;SDS011;32845;59.422;17.930;2022-09-09T05:26:25;0.65;;;0.50;;
44694;SDS011;32845;59.422;17.930;2022-09-09T05:30:59;3.13;;;0.30;;
44694;SDS011;32845;59.422;17.930;2022-09-09T05:35:41;1.55;;;0.40;;
44694;SDS011;32845;59.422;17.930;2022-09-09T05:40:11;0.35;;;0.32;;
44694;SDS011;32845;59.422;17.930;2022-09-09T05:44:47;10.43;;;0.90;;
44694;SDS011;32845;59.422;17.930;2022-09-09T05:49:18;2.13;;;0.60;;
44694;SDS011;32845;59.422;17.930;2022-09-09T05:53:49;2.42;;;0.50;;
44694;SDS011;32845;59.422;17.930;2022-09-09T05:58:25;3.42;;;0.52;;
44694;SDS011;32845;59.422;17.930;2022-09-09T06:02:55;6.22;;;0.73;;
44694;SDS011;32845;59.422;17.930;2022-09-09T06:07:26;8.90;;;0.60;;
44694;SDS011;32845;59.422;17.930;2022-09-09T06:11:57;19.13;;;0.60;;
44694;SDS011;32845;59.422;17.930;2022-09-09T06:16:28;0.28;;;0.20;;
44694;SDS011;32845;59.422;17.930;2022-09-09T06:21:01;5.97;;;0.43;;
44694;SDS011;32845;59.422;17.930;2022-09-09T06:25:36;2.15;;;0.82;;
44694;SDS011;32845;59.422;17.930;2022-09-09T06:30:09;1.42;;;0.40;;
44694;SDS011;32845;59.422;17.930;2022-09-09T06:34:41;1.48;;;0.75;;
44694;SDS011;32845;59.422;17.930;2022-09-09T06:39:11;1.73;;;0.32;;
44694;SDS011;32845;59.422;17.930;2022-09-09T06:43:44;1.10;;;0.20;;
44694;SDS011;32845;59.422;17.930;2022-09-09T06:48:15;2.28;;;0.60;;
44694;SDS011;32845;59.422;17.930;2022-09-09T06:52:46;3.60;;;0.80;;
44694;SDS011;32845;59.422;17.930;2022-09-09T06:57:17;1.35;;;0.30;;
44694;SDS011;32845;59.422;17.930;2022-09-09T07:01:48;0.63;;;0.38;;
44694;SDS011;32845;59.422;17.930;2022-09-09T07:06:22;2.95;;;0.50;;
44694;SDS011;32845;59.422;17.930;2022-09-09T07:10:55;2.08;;;0.40;;
44694;SDS011;32845;59.422;17.930;2022-09-09T07:15:34;0.98;;;0.40;;
44694;SDS011;32845;59.422;17.930;2022-09-09T07:20:05;17.05;;;0.80;;
44694;SDS011;32845;59.422;17.930;2022-09-09T07:24:37;1.33;;;0.22;;
44694;SDS011;32845;59.422;17.930;2022-09-09T07:29:08;1.70;;;0.40;;
44694;SDS011;32845;59.422;17.930;2022-09-09T07:33:44;1.80;;;0.40;;
44694;SDS011;32845;59.422;17.930;2022-09-09T07:38:15;1.67;;;0.47;;
44694;SDS011;32845;59.422;17.930;2022-09-09T07:42:46;1.88;;;0.43;;
44694;SDS011;32845;59.422;17.930;2022-09-09T07:47:17;2.00;;;0.50;;
44694;SDS011;32845;59.422;17.930;2022-09-09T07:51:48;1.55;;;0.60;;
44694;SDS011;32845;59.422;17.930;2022-09-09T07:56:19;4.90;;;1.13;;
44694;SDS011;32845;59.422;17.930;2022-09-09T08:00:53;1.08;;;0.30;;
44694;SDS011;32845;59.422;17.930;2022-09-09T08:05:23;3.85;;;0.40;;
44694;SDS011;32845;59.422;17.930;2022-09-09T08:09:55;1.08;;;0.25;;
44694;SDS011;32845;59.422;17.930;2022-09-09T08:14:25;5.15;;;0.60;;
44694;SDS011;32845;59.422;17.930;2022-09-09T08:18:56;1.33;;;0.50;;
44694;SDS011;32845;59.422;17.930;2022-09-09T08:23:27;6.60;;;0.60;;
44694;SDS011;32845;59.422;17.930;2022-09-09T08:27:58;3.42;;;0.40;;
44694;SDS011;32845;59.422;17.930;2022-09-09T08:32:29;5.03;;;0.50;;
44694;SDS011;32845;59.422;17.930;2022-09-09T08:36:59;1.17;;;0.30;;
44694;SDS011;32845;59.422;17.930;2022-09-09T08:41:52;3.40;;;0.40;;
44694;SDS011;32845;59.422;17.930;2022-09-09T08:55:51;5.75;;;0.52;;
44694;SDS011;32845;59.422;17.930;2022-09-09T09:10:08;2.78;;;1.67;;
44694;SDS011;32845;59.422;17.930;2022-09-09T09:14:49;1.30;;;0.40;;
44694;SDS011;32845;59.422;17.930;2022-09-09T09:19:20;1.90;;;0.50;;
44694;SDS011;32845;59.422;17.930;2022-09-09T09:24:02;2.25;;;0.77;;
44694;SDS011;32845;59.422;17.930;2022-09-09T09:28:42;0.80;;;0.30;;
44694;SDS011;32845;59.422;17.930;2022-09-09T09:33:18;1.83;;;0.63;;
44694;SDS011;32845;59.422;17.930;2022-09-09T09:37:54;0.43;;;0.40;;
44694;SDS011;32845;59.422;17.930;2022-09-09T09:42:25;5.60;;;0.40;;
44694;SDS011;32845;59.422;17.930;2022-09-09T09:47:07;1.73;;;0.60;;
44694;SDS011;32845;59.422;17.930;2022-09-09T09:51:51;1.33;;;0.25;;
44694;SDS011;32845;59.422;17.930;2022-09-09T09:56:26;1.40;;;0.40;;
44694;SDS011;32845;59.422;17.930;2022-09-09T10:01:02;1.38;;;0.52;;
44694;SDS011;32845;59.422;17.930;2022-09-09T10:05:35;1.63;;;0.50;;
44694;SDS011;32845;59.422;17.930;2022-09-09T10:10:08;1.48;;;0.45;;
44694;SDS011;32845;59.422;17.930;2022-09-09T10:19:34;0.65;;;0.30;;
44694;SDS011;32845;59.422;17.930;2022-09-09T10:33:41;1.38;;;0.38;;
44694;SDS011;32845;59.422;17.930;2022-09-09T10:43:18;6.88;;;0.40;;
44694;SDS011;32845;59.422;17.930;2022-09-09T10:48:07;1.42;;;0.50;;
44694;SDS011;32845;59.422;17.930;2022-09-09T10:57:53;0.57;;;0.35;;
44694;SDS011;32845;59.422;17.930;2022-09-09T11:07:00;1.60;;;0.50;;
44694;SDS011;32845;59.422;17.930;2022-09-09T11:11:51;1.40;;;0.50;;
44694;SDS011;32845;59.422;17.930;2022-09-09T11:16:34;4.35;;;0.45;;
44694;SDS011;32845;59.422;17.930;2022-09-09T11:21:24;0.70;;;0.40;;
44694;SDS011;32845;59.422;17.930;2022-09-09T11:26:04;0.85;;;0.40;;
44694;SDS011;32845;59.422;17.930;2022-09-09T11:40:30;0.97;;;0.53;;
44694;SDS011;32845;59.422;17.930;2022-09-09T11:45:09;3.08;;;0.57;;
44694;SDS011;32845;59.422;17.930;2022-09-09T11:49:45;4.05;;;0.40;;
44694;SDS011;32845;59.422;17.930;2022-09-09T11:59:19;2.13;;;0.50;;
44694;SDS011;32845;59.422;17.930;2022-09-09T12:04:16;4.05;;;0.70;;
44694;SDS011;32845;59.422;17.930;2022-09-09T12:08:50;2.50;;;0.50;;
44694;SDS011;32845;59.422;17.930;2022-09-09T12:13:25;1.98;;;0.60;;
44694;SDS011;32845;59.422;17.930;2022-09-09T12:17:57;1.80;;;0.60;;
44694;SDS011;32845;59.422;17.930;2022-09-09T12:22:37;1.67;;;0.60;;
44694;SDS011;32845;59.422;17.930;2022-09-09T12:32:27;9.43;;;0.60;;
44694;SDS011;32845;59.422;17.930;2022-09-09T12:37:02;2.97;;;0.70;;
44694;SDS011;32845;59.422;17.930;2022-09-09T12:41:52;2.75;;;0.50;;
44694;SDS011;32845;59.422;17.930;2022-09-09T12:51:19;2.63;;;1.08;;
44694;SDS011;32845;59.422;17.930;2022-09-09T12:55:59;1.63;;;0.60;;
44694;SDS011;32845;59.422;17.930;2022-09-09T13:00:51;2.10;;;0.60;;
44694;SDS011;32845;59.422;17.930;2022-09-09T13:05:27;4.07;;;0.60;;
44694;SDS011;32845;59.422;17.930;2022-09-09T13:14:35;1.50;;;0.50;;
44694;SDS011;32845;59.422;17.930;2022-09-09T13:19:13;2.30;;;0.70;;
44694;SDS011;32845;59.422;17.930;2022-09-09T13:23:51;2.03;;;0.57;;
44694;SDS011;32845;59.422;17.930;2022-09-09T13:28:24;1.27;;;0.80;;
44694;SDS011;32845;59.422;17.930;2022-09-09T13:33:00;0.98;;;0.60;;
44694;SDS011;32845;59.422;17.930;2022-09-09T13:37:38;1.15;;;0.70;;
44694;SDS011;32845;59.422;17.930;2022-09-09T13:42:31;2.67;;;0.60;;
44694;SDS011;32845;59.422;17.930;2022-09-09T13:47:18;0.68;;;0.52;;
44694;SDS011;32845;59.422;17.930;2022-09-09T13:51:50;2.35;;;0.50;;
44694;SDS011;32845;59.422;17.930;2022-09-09T13:56:23;1.58;;;0.63;;
44694;SDS011;32845;59.422;17.930;2022-09-09T14:00:54;1.45;;;0.65;;
44694;SDS011;32845;59.422;17.930;2022-09-09T14:05:25;0.80;;;0.60;;
44694;SDS011;32845;59.422;17.930;2022-09-09T14:09:56;1.85;;;0.68;;
44694;SDS011;32845;59.422;17.930;2022-09-09T14:14:26;2.60;;;0.55;;
44694;SDS011;32845;59.422;17.930;2022-09-09T14:18:57;1.83;;;0.70;;
44694;SDS011;32845;59.422;17.930;2022-09-09T14:23:29;1.83;;;0.60;;
44694;SDS011;32845;59.422;17.930;2022-09-09T14:28:00;2.55;;;0.52;;
44694;SDS011;32845;59.422;17.930;2022-09-09T14:32:31;1.15;;;0.52;;
44694;SDS011;32845;59.422;17.930;2022-09-09T14:37:03;3.05;;;0.80;;
44694;SDS011;32845;59.422;17.930;2022-09-09T14:41:38;1.15;;;0.60;;
44694;SDS011;32845;59.422;17.930;2022-09-09T14:46:10;1.27;;;0.60;;
44694;SDS011;32845;59.422;17.930;2022-09-09T14:50:43;5.93;;;0.68;;
44694;SDS011;32845;59.422;17.930;2022-09-09T14:55:28;1.90;;;0.65;;
44694;SDS011;32845;59.422;17.930;2022-09-09T14:59:59;2.22;;;1.05;;
44694;SDS011;32845;59.422;17.930;2022-09-09T15:04:30;3.58;;;0.90;;
44694;SDS011;32845;59.422;17.930;2022-09-09T15:09:01;1.00;;;0.50;;
44694;SDS011;32845;59.422;17.930;2022-09-09T15:13:32;1.00;;;0.50;;
44694;SDS011;32845;59.422;17.930;2022-09-09T15:18:04;3.50;;;0.80;;
44694;SDS011;32845;59.422;17.930;2022-09-09T15:22:34;2.53;;;0.70;;
44694;SDS011;32845;59.422;17.930;2022-09-09T15:27:06;2.92;;;1.35;;
44694;SDS011;32845;59.422;17.930;2022-09-09T15:31:37;2.47;;;0.65;;
44694;SDS011;32845;59.422;17.930;2022-09-09T15:36:15;1.90;;;0.98;;
44694;SDS011;32845;59.422;17.930;2022-09-09T15:40:56;2.03;;;0.97;;
44694;SDS011;32845;59.422;17.930;2022-09-09T15:45:33;1.80;;;0.75;;
44694;SDS011;32845;59.422;17.930;2022-09-09T15:50:04;1.23;;;0.50;;
44694;SDS011;32845;59.422;17.930;2022-09-09T15:54:35;2.15;;;1.35;;
44694;SDS011;32845;59.422;17.930;2022-09-09T15:59:08;1.65;;;1.13;;
44694;SDS011;32845;59.422;17.930;2022-09-09T16:03:40;16.15;;;8.90;;
44694;SDS011;32845;59.422;17.930;2022-09-09T16:08:12;12.98;;;5.97;;
44694;SDS011;32845;59.422;17.930;2022-09-09T16:12:43;11.93;;;7.70;;
44694;SDS011;32845;59.422;17.930;2022-09-09T16:17:14;5.35;;;3.67;;
44694;SDS011;32845;59.422;17.930;2022-09-09T16:21:55;13.32;;;8.20;;
44694;SDS011;32845;59.422;17.930;2022-09-09T16:26:27;21.35;;;12.32;;
44694;SDS011;32845;59.422;17.930;2022-09-09T16:30:58;14.85;;;6.05;;
44694;SDS011;32845;59.422;17.930;2022-09-09T16:35:36;12.95;;;6.72;;
44694;SDS011;32845;59.422;17.930;2022-09-09T16:40:08;6.45;;;4.28;;
44694;SDS011;32845;59.422;17.930;2022-09-09T16:44:39;9.18;;;5.97;;
44694;SDS011;32845;59.422;17.930;2022-09-09T16:49:11;7.93;;;4.45;;
44694;SDS011;32845;59.422;17.930;2022-09-09T16:53:45;4.72;;;0.80;;
44694;SDS011;32845;59.422;17.930;2022-09-09T16:58:16;3.80;;;0.80;;
44694;SDS011;32845;59.422;17.930;2022-09-09T17:02:47;1.58;;;0.60;;
44694;SDS011;32845;59.422;17.930;2022-09-09T17:07:17;1.75;;;0.60;;
44694;SDS011;32845;59.422;17.930;2022-09-09T17:11:49;6.18;;;0.50;;
44694;SDS011;32845;59.422;17.930;2022-09-09T17:16:22;4.82;;;0.80;;
44694;SDS011;32845;59.422;17.930;2022-09-09T17:21:01;3.38;;;0.90;;
44694;SDS011;32845;59.422;17.930;2022-09-09T17:25:36;3.80;;;0.70;;
44694;SDS011;32845;59.422;17.930;2022-09-09T17:30:08;0.80;;;0.40;;
44694;SDS011;32845;59.422;17.930;2022-09-09T17:34:44;1.45;;;0.70;;
44694;SDS011;32845;59.422;17.930;2022-09-09T17:39:15;1.58;;;0.77;;
44694;SDS011;32845;59.422;17.930;2022-09-09T17:43:46;1.45;;;0.57;;
44694;SDS011;32845;59.422;17.930;2022-09-09T17:48:18;2.78;;;0.80;;
44694;SDS011;32845;59.422;17.930;2022-09-09T17:52:48;2.08;;;0.70;;
44694;SDS011;32845;59.422;17.930;2022-09-09T17:57:19;1.90;;;0.70;;
44694;SDS011;32845;59.422;17.930;2022-09-09T18:01:52;1.30;;;0.70;;
44694;SDS011;32845;59.422;17.930;2022-09-09T18:06:23;3.42;;;0.80;;
44694;SDS011;32845;59.422;17.930;2022-09-09T18:10:59;6.38;;;1.02;;
44694;SDS011;32845;59.422;17.930;2022-09-09T18:15:31;4.40;;;0.90;;
44694;SDS011;32845;59.422;17.930;2022-09-09T18:20:06;2.55;;;0.90;;
44694;SDS011;32845;59.422;17.930;2022-09-09T18:24:47;3.15;;;1.25;;
44694;SDS011;32845;59.422;17.930;2022-09-09T18:29:20;2.38;;;1.02;;
44694;SDS011;32845;59.422;17.930;2022-09-09T18:34:00;4.75;;;0.90;;
44694;SDS011;32845;59.422;17.930;2022-09-09T18:38:33;2.60;;;1.10;;
44694;SDS011;32845;59.422;17.930;2022-09-09T18:43:09;4.50;;;1.33;;
44694;SDS011;32845;59.422;17.930;2022-09-09T18:47:41;2.13;;;1.33;;
44694;SDS011;32845;59.422;17.930;2022-09-09T18:52:13;5.45;;;1.50;;
44694;SDS011;32845;59.422;17.930;2022-09-09T18:56:44;5.85;;;1.58;;
44694;SDS011;32845;59.422;17.930;2022-09-09T19:01:16;3.95;;;1.30;;
44694;SDS011;32845;59.422;17.930;2022-09-09T19:05:46;3.10;;;1.20;;
44694;SDS011;32845;59.422;17.930;2022-09-09T19:10:17;4.40;;;1.50;;
44694;SDS011;32845;59.422;17.930;2022-09-09T19:14:48;6.88;;;1.25;;
44694;SDS011;32845;59.422;17.930;2022-09-09T19:19:20;2.70;;;1.40;;
44694;SDS011;32845;59.422;17.930;2022-09-09T19:23:55;6.32;;;1.60;;
44694;SDS011;32845;59.422;17.930;2022-09-09T19:28:34;3.03;;;1.27;;
44694;SDS011;32845;59.422;17.930;2022-09-09T19:33:11;8.13;;;1.88;;
44694;SDS011;32845;59.422;17.930;2022-09-09T19:37:42;3.05;;;1.60;;
44694;SDS011;32845;59.422;17.930;2022-09-09T19:42:13;3.10;;;1.80;;
44694;SDS011;32845;59.422;17.930;2022-09-09T19:46:44;3.88;;;1.92;;
44694;SDS011;32845;59.422;17.930;2022-09-09T19:51:17;6.60;;;2.55;;
44694;SDS011;32845;59.422;17.930;2022-09-09T19:55:49;4.72;;;2.22;;
44694;SDS011;32845;59.422;17.930;2022-09-09T20:00:20;3.80;;;1.83;;
44694;SDS011;32845;59.422;17.930;2022-09-09T20:04:51;6.55;;;1.92;;
44694;SDS011;32845;59.422;17.930;2022-09-09T20:09:21;5.05;;;1.77;;
44694;SDS011;32845;59.422;17.930;2022-09-09T20:13:54;6.35;;;1.73;;
44694;SDS011;32845;59.422;17.930;2022-09-09T20:18:29;3.72;;;1.92;;
44694;SDS011;32845;59.422;17.930;2022-09-09T20:23:01;2.95;;;1.60;;
44694;SDS011;32845;59.422;17.930;2022-09-09T20:27:32;4.47;;;1.30;;
44694;SDS011;32845;59.422;17.930;2022-09-09T20:32:02;6.07;;;1.45;;
44694;SDS011;32845;59.422;17.930;2022-09-09T20:36:35;3.20;;;1.48;;
44694;SDS011;32845;59.422;17.930;2022-09-09T20:41:06;1.38;;;1.08;;
44694;SDS011;32845;59.422;17.930;2022-09-09T20:45:39;5.40;;;1.15;;
44694;SDS011;32845;59.422;17.930;2022-09-09T20:50:12;2.67;;;1.05;;
44694;SDS011;32845;59.422;17.930;2022-09-09T20:54:44;5.95;;;1.00;;
44694;SDS011;32845;59.422;17.930;2022-09-09T20:59:17;2.13;;;1.13;;
44694;SDS011;32845;59.422;17.930;2022-09-09T21:03:55;3.80;;;1.25;;
44694;SDS011;32845;59.422;17.930;2022-09-09T21:08:26;2.75;;;1.60;;
44694;SDS011;32845;59.422;17.930;2022-09-09T21:12:57;3.80;;;1.27;;
44694;SDS011;32845;59.422;17.930;2022-09-09T21:17:30;4.53;;;1.50;;
44694;SDS011;32845;59.422;17.930;2022-09-09T21:22:01;9.38;;;2.20;;
44694;SDS011;32845;59.422;17.930;2022-09-09T21:26:32;9.27;;;3.00;;
44694;SDS011;32845;59.422;17.930;2022-09-09T21:31:03;19.13;;;3.60;;
44694;SDS011;32845;59.422;17.930;2022-09-09T21:35:35;9.25;;;3.15;;
44694;SDS011;32845;59.422;17.930;2022-09-09T21:40:08;13.07;;;2.80;;
44694;SDS011;32845;59.422;17.930;2022-09-09T21:44:44;12.18;;;2.45;;
44694;SDS011;32845;59.422;17.930;2022-09-09T21:49:15;4.53;;;1.77;;
44694;SDS011;32845;59.422;17.930;2022-09-09T21:53:45;6.30;;;2.25;;
44694;SDS011;32845;59.422;17.930;2022-09-09T21:58:16;5.25;;;2.03;;
44694;SDS011;32845;59.422;17.930;2022-09-09T22:02:50;3.72;;;1.70;;
44694;SDS011;32845;59.422;17.930;2022-09-09T22:07:20;4.90;;;2.10;;
44694;SDS011;32845;59.422;17.930;2022-09-09T22:11:51;3.53;;;1.60;;
44694;SDS011;32845;59.422;17.930;2022-09-09T22:16:22;5.85;;;1.98;;
44694;SDS011;32845;59.422;17.930;2022-09-09T22:20:54;4.13;;;1.75;;
44694;SDS011;32845;59.422;17.930;2022-09-09T22:25:25;3.65;;;1.80;;
44694;SDS011;32845;59.422;17.930;2022-09-09T22:29:55;5.95;;;1.27;;
44694;SDS011;32845;59.422;17.930;2022-09-09T22:34:26;3.60;;;1.60;;
44694;SDS011;32845;59.422;17.930;2022-09-09T22:38:57;3.85;;;1.30;;
44694;SDS011;32845;59.422;17.930;2022-09-09T22:43:28;2.17;;;1.38;;
44694;SDS011;32845;59.422;17.930;2022-09-09T22:48:00;4.30;;;1.50;;
44694;SDS011;32845;59.422;17.930;2022-09-09T22:52:31;4.75;;;1.60;;
44694;SDS011;32845;59.422;17.930;2022-09-09T22:57:02;4.25;;;1.40;;
44694;SDS011;32845;59.422;17.930;2022-09-09T23:01:33;11.85;;;1.80;;
44694;SDS011;32845;59.422;17.930;2022-09-09T23:06:04;4.03;;;1.40;;
44694;SDS011;32845;59.422;17.930;2022-09-09T23:10:38;7.68;;;1.17;;
44694;SDS011;32845;59.422;17.930;2022-09-09T23:15:11;4.65;;;1.35;;
44694;SDS011;32845;59.422;17.930;2022-09-09T23:19:43;5.50;;;1.40;;
44694;SDS011;32845;59.422;17.930;2022-09-09T23:24:18;3.25;;;1.20;;
44694;SDS011;32845;59.422;17.930;2022-09-09T23:28:50;3.22;;;1.30;;
44694;SDS011;32845;59.422;17.930;2022-09-09T23:33:21;5.30;;;1.08;;
44694;SDS011;32845;59.422;17.930;2022-09-09T23:37:52;3.03;;;1.17;;
44694;SDS011;32845;59.422;17.930;2022-09-09T23:42:23;8.25;;;0.98;;
44694;SDS011;32845;59.422;17.930;2022-09-09T23:46:54;5.00;;;1.20;;
44694;SDS011;32845;59.422;17.930;2022-09-09T23:51:26;3.25;;;1.25;;
44694;SDS011;32845;59.422;17.930;2022-09-09T23:55:59;3.75;;;1.05;;
